createdAt,value
2023-03-01T00:01:39.958Z,59.49
2023-03-01T00:05:47.865Z,59.69
2023-03-01T00:09:50.859Z,59.52
2023-03-01T00:13:55.686Z,59.68
2023-03-01T00:17:58.634Z,60.00
2023-03-01T00:22:03.493Z,59.71
2023-03-01T00:26:09.505Z,59.76
2023-03-01T00:30:14.426Z,59.62
2023-03-01T00:34:17.442Z,59.76
2023-03-01T00:38:21.865Z,59.78
2023-03-01T00:42:26.136Z,59.92
2023-03-01T00:46:31.519Z,60.16
2023-03-01T00:50:34.901Z,60.16
2023-03-01T00:54:40.358Z,60.02
2023-03-01T00:58:43.777Z,60.17
2023-03-01T01:02:46.880Z,60.30
2023-03-01T01:06:49.867Z,60.48
2023-03-01T01:10:54.300Z,60.38
2023-03-01T01:14:57.321Z,60.51
2023-03-01T01:19:00.427Z,60.55
2023-03-01T01:23:04.859Z,60.47
2023-03-01T01:27:09.382Z,60.91
2023-03-01T01:31:12.428Z,60.98
2023-03-01T01:35:15.529Z,61.13
2023-03-01T01:39:19.288Z,61.11
2023-03-01T01:43:26.250Z,61.20
2023-03-01T01:47:35.079Z,61.46
2023-03-01T01:51:41.148Z,61.48
2023-03-01T01:55:47.437Z,61.78
2023-03-01T01:59:54.770Z,61.99
2023-03-01T02:03:58.191Z,62.18
2023-03-01T02:08:01.857Z,62.18
2023-03-01T02:12:06.857Z,62.35
2023-03-01T02:16:13.741Z,62.38
2023-03-01T02:20:25.325Z,62.64
2023-03-01T02:24:36.114Z,62.62
2023-03-01T02:28:42.391Z,62.15
2023-03-01T02:32:45.693Z,62.47
2023-03-01T02:36:51.940Z,62.43
2023-03-01T02:40:56.849Z,62.50
2023-03-01T02:45:01.259Z,62.52
2023-03-01T02:49:04.402Z,62.38
2023-03-01T02:53:15.297Z,62.68
2023-03-01T02:57:18.766Z,62.85
2023-03-01T03:01:24.110Z,62.87
2023-03-01T03:05:29.623Z,63.08
2023-03-01T03:09:34.074Z,63.17
2023-03-01T03:13:37.201Z,63.53
2023-03-01T03:17:45.266Z,63.55
2023-03-01T03:21:50.636Z,63.75
2023-03-01T03:25:53.934Z,63.72
2023-03-01T03:29:57.307Z,63.74
2023-03-01T03:34:01.627Z,63.89
2023-03-01T03:38:10.294Z,64.12
2023-03-01T03:42:13.245Z,63.96
2023-03-01T03:46:16.439Z,63.80
2023-03-01T03:50:21.081Z,63.85
2023-03-01T03:54:24.327Z,64.37
2023-03-01T03:58:27.910Z,64.52
2023-03-01T04:02:31.008Z,64.74
2023-03-01T04:06:35.528Z,64.98
2023-03-01T04:10:40.683Z,65.28
2023-03-01T04:14:43.741Z,64.67
2023-03-01T04:18:46.951Z,65.03
2023-03-01T04:22:51.265Z,65.03
2023-03-01T04:26:54.518Z,65.19
2023-03-01T04:30:59.006Z,65.36
2023-03-01T04:35:02.350Z,65.50
2023-03-01T04:39:13.176Z,65.65
2023-03-01T04:43:16.610Z,65.39
2023-03-01T04:47:19.637Z,65.17
2023-03-01T04:51:22.969Z,65.29
2023-03-01T04:55:28.485Z,65.27
2023-03-01T04:59:31.754Z,65.00
2023-03-01T05:03:34.720Z,65.01
2023-03-01T05:07:37.756Z,65.09
2023-03-01T05:11:42.101Z,65.45
2023-03-01T05:15:45.190Z,65.33
2023-03-01T05:19:48.272Z,65.11
2023-03-01T05:23:51.503Z,65.02
2023-03-01T05:27:56.093Z,64.89
2023-03-01T05:32:01.963Z,65.16
2023-03-01T05:36:05.838Z,65.27
2023-03-01T05:40:16.518Z,65.39
2023-03-01T05:44:21.245Z,65.64
2023-03-01T05:48:24.363Z,65.34
2023-03-01T05:52:27.297Z,65.28
2023-03-01T05:56:31.354Z,65.37
2023-03-01T06:00:36.481Z,65.37
2023-03-01T06:04:39.910Z,65.31
2023-03-01T06:08:42.901Z,65.29
2023-03-01T06:12:46.682Z,65.14
2023-03-01T06:16:51.020Z,64.81
2023-03-01T06:20:58.058Z,65.02
2023-03-01T06:25:01.066Z,64.62
2023-03-01T06:29:04.386Z,64.67
2023-03-01T06:33:08.793Z,64.57
2023-03-01T06:37:12.346Z,64.71
2023-03-01T06:41:15.308Z,64.74
2023-03-01T06:45:19.826Z,65.10
2023-03-01T06:49:24.453Z,65.17
2023-03-01T06:53:27.508Z,65.26
2023-03-01T06:57:30.954Z,65.37
2023-03-01T07:01:34.011Z,65.36
2023-03-01T07:05:38.559Z,65.29
2023-03-01T07:09:41.693Z,66.24
2023-03-01T07:13:44.650Z,65.41
2023-03-01T07:17:49.014Z,65.12
2023-03-01T07:21:53.605Z,65.11
2023-03-01T07:25:57.121Z,64.90
2023-03-01T07:30:00.340Z,63.92
2023-03-01T07:34:03.443Z,64.41
2023-03-01T07:38:07.797Z,64.30
2023-03-01T07:42:11.136Z,64.27
2023-03-01T07:46:14.116Z,64.28
2023-03-01T07:50:17.840Z,63.94
2023-03-01T07:54:22.588Z,64.12
2023-03-01T07:58:25.794Z,63.75
2023-03-01T08:02:28.742Z,63.90
2023-03-01T08:06:32.397Z,63.79
2023-03-01T08:10:38.437Z,63.54
2023-03-01T08:14:41.563Z,63.22
2023-03-01T08:18:45.446Z,63.24
2023-03-01T08:22:48.629Z,63.04
2023-03-01T08:26:52.954Z,62.66
2023-03-01T08:30:56.253Z,62.54
2023-03-01T08:34:59.384Z,62.18
2023-03-01T08:39:02.809Z,62.43
2023-03-01T08:43:07.179Z,62.39
2023-03-01T08:47:10.356Z,62.27
2023-03-01T08:51:16.069Z,62.02
2023-03-01T08:55:19.233Z,61.80
2023-03-01T08:59:23.804Z,61.45
2023-03-01T09:03:27.373Z,61.36
2023-03-01T09:07:30.428Z,61.13
2023-03-01T09:11:34.291Z,60.96
2023-03-01T09:15:40.384Z,60.65
2023-03-01T09:19:43.455Z,60.47
2023-03-01T09:23:48.044Z,60.24
2023-03-01T09:27:53.290Z,60.53
2023-03-01T09:31:57.838Z,59.74
2023-03-01T09:36:01.433Z,59.32
2023-03-01T09:40:06.329Z,59.12
2023-03-01T09:44:18.391Z,59.30
2023-03-01T09:48:26.141Z,59.59
2023-03-01T09:52:34.918Z,59.34
2023-03-01T09:56:41.834Z,59.22
2023-03-01T10:00:47.329Z,58.36
2023-03-01T10:04:53.159Z,57.81
2023-03-01T10:09:00.752Z,57.76
2023-03-01T10:13:09.155Z,57.15
2023-03-01T10:17:22.027Z,57.24
2023-03-01T10:21:30.379Z,56.58
2023-03-01T10:25:47.028Z,56.34
2023-03-01T10:30:00.565Z,55.52
2023-03-01T10:34:03.959Z,56.13
2023-03-01T10:38:10.419Z,55.97
2023-03-01T10:42:32.483Z,55.49
2023-03-01T10:46:38.685Z,55.87
2023-03-01T10:50:42.801Z,55.37
2023-03-01T10:54:54.915Z,54.99
2023-03-01T10:59:03.070Z,54.98
2023-03-01T11:03:14.091Z,55.21
2023-03-01T11:07:17.199Z,55.03
2023-03-01T11:11:28.351Z,55.23
2023-03-01T11:15:31.908Z,54.96
2023-03-01T11:19:35.337Z,54.94
2023-03-01T11:23:41.746Z,54.49
2023-03-01T11:27:47.608Z,53.50
2023-03-01T11:31:57.887Z,54.12
2023-03-01T11:36:05.424Z,54.33
2023-03-01T11:40:15.782Z,54.40
2023-03-01T11:44:25.357Z,53.99
2023-03-01T11:48:49.715Z,53.49
2023-03-01T11:53:03.871Z,53.23
2023-03-01T11:57:20.790Z,53.43
2023-03-01T12:01:39.751Z,53.58
2023-03-01T12:06:07.658Z,53.25
2023-03-01T12:10:24.434Z,53.83
2023-03-01T12:14:50.425Z,53.43
2023-03-01T12:19:13.152Z,52.49
2023-03-01T12:23:41.101Z,53.01
2023-03-01T12:28:16.490Z,53.06
2023-03-01T12:32:42.316Z,52.62
2023-03-01T12:36:59.994Z,52.85
2023-03-01T12:41:25.369Z,52.82
2023-03-01T12:45:42.491Z,52.75
2023-03-01T12:49:50.322Z,52.62
2023-03-01T12:53:57.086Z,52.70
2023-03-01T12:58:10.728Z,52.47
2023-03-01T13:02:24.048Z,53.04
2023-03-01T13:06:43.336Z,52.87
2023-03-01T13:10:52.482Z,53.16
2023-03-01T13:14:56.803Z,52.92
2023-03-01T13:19:10.905Z,52.95
2023-03-01T13:23:29.766Z,52.88
2023-03-01T13:27:34.153Z,52.61
2023-03-01T13:32:01.682Z,52.84
2023-03-01T13:36:08.110Z,53.23
2023-03-01T13:40:48.397Z,53.11
2023-03-01T13:44:52.820Z,53.01
2023-03-01T13:48:58.806Z,53.32
2023-03-01T13:53:05.275Z,52.59
2023-03-01T13:57:21.515Z,53.06
2023-03-01T14:01:29.943Z,53.06
2023-03-01T14:05:33.668Z,52.99
2023-03-01T14:09:42.204Z,53.02
2023-03-01T14:14:00.823Z,53.41
2023-03-01T14:18:15.005Z,53.32
2023-03-01T14:22:24.047Z,52.96
2023-03-01T14:26:27.538Z,52.76
2023-03-01T14:30:35.051Z,52.78
2023-03-01T14:34:45.546Z,53.22
2023-03-01T14:38:49.716Z,53.14
2023-03-01T14:42:53.666Z,52.75
2023-03-01T14:46:58.393Z,52.94
2023-03-01T14:51:03.496Z,52.71
2023-03-01T14:55:09.540Z,52.86
2023-03-01T14:59:13.395Z,52.79
2023-03-01T15:03:25.775Z,53.00
2023-03-01T15:07:33.610Z,52.99
2023-03-01T15:11:38.021Z,53.00
2023-03-01T15:15:44.925Z,53.42
2023-03-01T15:19:48.746Z,53.26
2023-03-01T15:23:56.461Z,53.43
2023-03-01T15:28:02.128Z,53.16
2023-03-01T15:32:08.040Z,53.02
2023-03-01T15:36:33.853Z,52.85
2023-03-01T15:40:50.952Z,52.77
2023-03-01T15:45:10.246Z,53.19
2023-03-01T15:49:29.831Z,53.20
2023-03-01T15:53:33.144Z,53.41
2023-03-01T15:57:37.518Z,53.23
2023-03-01T16:01:40.545Z,53.38
2023-03-01T16:05:44.076Z,53.39
2023-03-01T16:09:47.224Z,53.36
2023-03-01T16:13:51.874Z,53.45
2023-03-01T16:17:55.275Z,53.53
2023-03-01T16:21:58.318Z,53.92
2023-03-01T16:26:01.674Z,53.85
2023-03-01T16:30:07.195Z,54.02
2023-03-01T16:34:10.924Z,54.14
2023-03-01T16:38:14.007Z,54.49
2023-03-01T16:42:17.441Z,54.69
2023-03-01T16:46:23.953Z,54.65
2023-03-01T16:50:27.274Z,54.79
2023-03-01T16:54:30.499Z,54.62
2023-03-01T16:58:33.623Z,54.94
2023-03-01T17:02:38.258Z,55.01
2023-03-01T17:06:41.596Z,54.98
2023-03-01T17:10:44.920Z,55.11
2023-03-01T17:14:50.082Z,55.08
2023-03-01T17:18:55.103Z,55.16
2023-03-01T17:22:58.861Z,55.71
2023-03-01T17:27:02.041Z,55.60
2023-03-01T17:31:06.802Z,55.67
2023-03-01T17:35:12.255Z,56.03
2023-03-01T17:39:15.455Z,56.29
2023-03-01T17:43:20.089Z,56.64
2023-03-01T17:47:23.205Z,56.60
2023-03-01T17:51:27.604Z,56.78
2023-03-01T17:55:30.868Z,57.05
2023-03-01T17:59:34.129Z,56.92
2023-03-01T18:03:37.413Z,57.29
2023-03-01T18:07:41.937Z,57.31
2023-03-01T18:11:46.921Z,57.06
2023-03-01T18:15:50.833Z,57.71
2023-03-01T18:19:56.224Z,57.86
2023-03-01T18:24:00.671Z,57.92
2023-03-01T18:28:04.540Z,58.11
2023-03-01T18:32:08.548Z,58.49
2023-03-01T18:36:20.270Z,58.64
2023-03-01T18:40:24.635Z,58.58
2023-03-01T18:44:27.756Z,58.68
2023-03-01T18:48:30.713Z,58.75
2023-03-01T18:52:33.750Z,59.06
2023-03-01T18:56:38.437Z,59.13
2023-03-01T19:00:41.691Z,59.06
2023-03-01T19:04:44.656Z,59.53
2023-03-01T19:08:48.297Z,59.57
2023-03-01T19:12:52.676Z,59.92
2023-03-01T19:16:55.780Z,59.88
2023-03-01T19:21:03.883Z,59.96
2023-03-01T19:25:08.554Z,59.96
2023-03-01T19:29:13.164Z,60.05
2023-03-01T19:33:16.184Z,60.00
2023-03-01T19:37:19.179Z,59.95
2023-03-01T19:41:22.707Z,60.07
2023-03-01T19:45:33.356Z,60.73
2023-03-01T19:49:37.841Z,61.01
2023-03-01T19:53:42.002Z,61.23
2023-03-01T19:57:45.296Z,61.62
2023-03-01T20:01:49.778Z,61.14
2023-03-01T20:05:52.936Z,61.17
2023-03-01T20:09:56.085Z,61.32
2023-03-01T20:13:59.232Z,61.52
2023-03-01T20:18:03.591Z,61.32
2023-03-01T20:22:06.795Z,61.64
2023-03-01T20:26:15.148Z,61.39
2023-03-01T20:30:18.741Z,61.56
2023-03-01T20:34:23.090Z,61.53
2023-03-01T20:38:27.238Z,61.54
2023-03-01T20:42:30.200Z,61.53
2023-03-01T20:46:34.822Z,61.69
2023-03-01T20:50:42.851Z,61.54
2023-03-01T20:54:45.930Z,61.47
2023-03-01T20:58:49.472Z,61.70
2023-03-01T21:02:52.827Z,61.39
2023-03-01T21:06:57.218Z,61.44
2023-03-01T21:11:00.836Z,61.64
2023-03-01T21:15:03.976Z,61.82
2023-03-01T21:19:07.422Z,62.08
2023-03-01T21:23:11.749Z,62.29
2023-03-01T21:27:14.804Z,62.53
2023-03-01T21:31:19.947Z,62.65
2023-03-01T21:35:23.152Z,62.92
2023-03-01T21:39:28.949Z,62.92
2023-03-01T21:43:32.081Z,62.69
2023-03-01T21:47:36.237Z,62.62
2023-03-01T21:51:39.698Z,62.84
2023-03-01T21:55:49.370Z,62.15
2023-03-01T21:59:52.393Z,62.33
2023-03-01T22:03:56.162Z,62.41
2023-03-01T22:07:59.272Z,62.43
2023-03-01T22:12:03.724Z,62.86
2023-03-01T22:16:07.733Z,62.78
2023-03-01T22:20:12.065Z,62.97
2023-03-01T22:24:15.215Z,63.11
2023-03-01T22:28:20.266Z,62.84
2023-03-01T22:32:23.532Z,62.72
2023-03-01T22:36:27.101Z,62.90
2023-03-01T22:40:30.244Z,62.79
2023-03-01T22:44:34.572Z,62.64
2023-03-01T22:48:37.639Z,62.35
2023-03-01T22:52:40.802Z,62.45
2023-03-01T22:56:44.236Z,62.54
2023-03-01T23:00:48.567Z,62.64
2023-03-01T23:04:54.178Z,62.76
2023-03-01T23:08:58.701Z,62.48
2023-03-01T23:13:01.737Z,62.45
2023-03-01T23:17:08.067Z,62.46
2023-03-01T23:21:12.699Z,62.39
2023-03-01T23:25:16.092Z,62.75
2023-03-01T23:29:19.110Z,62.49
2023-03-01T23:33:23.490Z,62.74
2023-03-01T23:37:31.163Z,62.79
2023-03-01T23:41:36.276Z,62.90
2023-03-01T23:45:42.983Z,62.69
2023-03-01T23:49:47.321Z,62.33
2023-03-01T23:53:55.318Z,62.13
2023-03-01T23:57:58.268Z,62.22
